sensor_id;sensor_type;location;lat;lon;timestamp;P1;durP1;ratioP1;P2;durP2;ratioP2
23745;SDS011;12053;48.878;9.632;2023-08-06T00:02:26;4.18;;;3.65;;
23745;SDS011;12053;48.878;9.632;2023-08-06T00:04:53;4.70;;;4.30;;
23745;SDS011;12053;48.878;9.632;2023-08-06T00:07:20;4.93;;;4.43;;
23745;SDS011;12053;48.878;9.632;2023-08-06T00:09:47;4.90;;;4.35;;
23745;SDS011;12053;48.878;9.632;2023-08-06T00:12:14;5.57;;;4.28;;
23745;SDS011;12053;48.878;9.632;2023-08-06T00:14:42;4.78;;;3.88;;
23745;SDS011;12053;48.878;9.632;2023-08-06T00:17:10;4.60;;;4.20;;
23745;SDS011;12053;48.878;9.632;2023-08-06T00:19:37;4.10;;;3.70;;
23745;SDS011;12053;48.878;9.632;2023-08-06T00:22:04;4.28;;;3.88;;
23745;SDS011;12053;48.878;9.632;2023-08-06T00:24:31;4.93;;;4.40;;
23745;SDS011;12053;48.878;9.632;2023-08-06T00:26:59;6.93;;;4.25;;
23745;SDS011;12053;48.878;9.632;2023-08-06T00:29:26;5.00;;;4.50;;
23745;SDS011;12053;48.878;9.632;2023-08-06T00:31:53;6.45;;;4.53;;
23745;SDS011;12053;48.878;9.632;2023-08-06T00:34:20;4.95;;;4.32;;
23745;SDS011;12053;48.878;9.632;2023-08-06T00:36:47;5.70;;;4.55;;
23745;SDS011;12053;48.878;9.632;2023-08-06T00:39:14;5.30;;;4.75;;
23745;SDS011;12053;48.878;9.632;2023-08-06T00:41:41;6.50;;;5.40;;
23745;SDS011;12053;48.878;9.632;2023-08-06T00:44:09;5.57;;;5.07;;
23745;SDS011;12053;48.878;9.632;2023-08-06T00:46:36;6.05;;;5.45;;
23745;SDS011;12053;48.878;9.632;2023-08-06T00:49:03;6.53;;;5.90;;
23745;SDS011;12053;48.878;9.632;2023-08-06T00:51:31;6.65;;;5.80;;
23745;SDS011;12053;48.878;9.632;2023-08-06T00:53:58;7.95;;;6.07;;
23745;SDS011;12053;48.878;9.632;2023-08-06T00:56:25;8.30;;;6.80;;
23745;SDS011;12053;48.878;9.632;2023-08-06T00:58:53;9.10;;;6.78;;
23745;SDS011;12053;48.878;9.632;2023-08-06T01:01:20;7.15;;;6.45;;
23745;SDS011;12053;48.878;9.632;2023-08-06T01:03:48;7.57;;;6.78;;
23745;SDS011;12053;48.878;9.632;2023-08-06T01:06:15;7.13;;;6.25;;
23745;SDS011;12053;48.878;9.632;2023-08-06T01:08:56;7.68;;;6.40;;
23745;SDS011;12053;48.878;9.632;2023-08-06T01:16:44;8.77;;;7.15;;
23745;SDS011;12053;48.878;9.632;2023-08-06T01:19:18;7.85;;;7.15;;
23745;SDS011;12053;48.878;9.632;2023-08-06T01:21:45;8.23;;;7.38;;
23745;SDS011;12053;48.878;9.632;2023-08-06T01:24:13;8.75;;;7.20;;
23745;SDS011;12053;48.878;9.632;2023-08-06T01:26:42;8.27;;;7.47;;
23745;SDS011;12053;48.878;9.632;2023-08-06T01:29:25;9.15;;;8.15;;
23745;SDS011;12053;48.878;9.632;2023-08-06T01:31:55;9.07;;;7.90;;
23745;SDS011;12053;48.878;9.632;2023-08-06T01:34:28;11.48;;;8.68;;
23745;SDS011;12053;48.878;9.632;2023-08-06T01:36:56;10.27;;;8.57;;
23745;SDS011;12053;48.878;9.632;2023-08-06T01:39:23;9.02;;;8.13;;
23745;SDS011;12053;48.878;9.632;2023-08-06T01:41:50;9.07;;;7.75;;
23745;SDS011;12053;48.878;9.632;2023-08-06T01:44:18;8.98;;;8.07;;
23745;SDS011;12053;48.878;9.632;2023-08-06T01:46:45;10.52;;;8.68;;
23745;SDS011;12053;48.878;9.632;2023-08-06T01:49:12;10.00;;;7.85;;
23745;SDS011;12053;48.878;9.632;2023-08-06T01:51:39;12.00;;;8.07;;
23745;SDS011;12053;48.878;9.632;2023-08-06T01:54:06;10.48;;;7.38;;
23745;SDS011;12053;48.878;9.632;2023-08-06T01:56:34;10.25;;;7.80;;
23745;SDS011;12053;48.878;9.632;2023-08-06T01:59:01;9.32;;;8.43;;
23745;SDS011;12053;48.878;9.632;2023-08-06T02:01:30;12.45;;;7.18;;
23745;SDS011;12053;48.878;9.632;2023-08-06T02:03:57;12.20;;;7.78;;
23745;SDS011;12053;48.878;9.632;2023-08-06T02:06:24;8.55;;;7.53;;
23745;SDS011;12053;48.878;9.632;2023-08-06T02:08:52;8.65;;;7.70;;
23745;SDS011;12053;48.878;9.632;2023-08-06T02:11:19;9.15;;;7.63;;
23745;SDS011;12053;48.878;9.632;2023-08-06T02:13:46;10.50;;;7.93;;
23745;SDS011;12053;48.878;9.632;2023-08-06T02:16:13;8.15;;;7.25;;
23745;SDS011;12053;48.878;9.632;2023-08-06T02:18:40;8.88;;;7.57;;
23745;SDS011;12053;48.878;9.632;2023-08-06T02:21:07;8.15;;;6.95;;
23745;SDS011;12053;48.878;9.632;2023-08-06T02:23:35;8.23;;;6.35;;
23745;SDS011;12053;48.878;9.632;2023-08-06T02:26:02;8.27;;;7.03;;
23745;SDS011;12053;48.878;9.632;2023-08-06T02:28:30;10.02;;;6.65;;
23745;SDS011;12053;48.878;9.632;2023-08-06T02:30:57;7.38;;;6.53;;
23745;SDS011;12053;48.878;9.632;2023-08-06T02:33:25;6.75;;;5.47;;
23745;SDS011;12053;48.878;9.632;2023-08-06T02:35:58;7.63;;;5.72;;
23745;SDS011;12053;48.878;9.632;2023-08-06T02:38:26;7.00;;;5.75;;
23745;SDS011;12053;48.878;9.632;2023-08-06T02:40:53;6.35;;;5.75;;
23745;SDS011;12053;48.878;9.632;2023-08-06T02:43:20;6.70;;;5.70;;
23745;SDS011;12053;48.878;9.632;2023-08-06T02:45:48;7.70;;;5.63;;
23745;SDS011;12053;48.878;9.632;2023-08-06T02:48:15;7.68;;;5.20;;
23745;SDS011;12053;48.878;9.632;2023-08-06T02:50:44;7.78;;;5.90;;
23745;SDS011;12053;48.878;9.632;2023-08-06T02:53:11;8.07;;;5.40;;
23745;SDS011;12053;48.878;9.632;2023-08-06T02:55:38;5.78;;;4.68;;
23745;SDS011;12053;48.878;9.632;2023-08-06T02:58:13;5.68;;;4.45;;
23745;SDS011;12053;48.878;9.632;2023-08-06T03:00:40;6.45;;;4.18;;
23745;SDS011;12053;48.878;9.632;2023-08-06T03:03:07;5.38;;;3.88;;
23745;SDS011;12053;48.878;9.632;2023-08-06T03:05:34;5.88;;;3.83;;
23745;SDS011;12053;48.878;9.632;2023-08-06T03:08:01;4.70;;;3.70;;
23745;SDS011;12053;48.878;9.632;2023-08-06T03:10:28;4.88;;;4.40;;
23745;SDS011;12053;48.878;9.632;2023-08-06T03:12:56;5.55;;;4.28;;
23745;SDS011;12053;48.878;9.632;2023-08-06T03:15:23;5.85;;;3.70;;
23745;SDS011;12053;48.878;9.632;2023-08-06T03:17:50;6.65;;;4.15;;
23745;SDS011;12053;48.878;9.632;2023-08-06T03:20:17;4.60;;;3.63;;
23745;SDS011;12053;48.878;9.632;2023-08-06T03:22:45;6.82;;;3.70;;
23745;SDS011;12053;48.878;9.632;2023-08-06T03:25:12;5.55;;;4.03;;
23745;SDS011;12053;48.878;9.632;2023-08-06T03:27:39;6.07;;;4.10;;
23745;SDS011;12053;48.878;9.632;2023-08-06T03:30:06;5.43;;;4.00;;
23745;SDS011;12053;48.878;9.632;2023-08-06T03:32:34;5.28;;;4.00;;
23745;SDS011;12053;48.878;9.632;2023-08-06T03:35:01;5.45;;;4.10;;
23745;SDS011;12053;48.878;9.632;2023-08-06T03:37:28;5.15;;;3.75;;
23745;SDS011;12053;48.878;9.632;2023-08-06T03:39:55;6.15;;;3.90;;
23745;SDS011;12053;48.878;9.632;2023-08-06T03:42:22;4.13;;;3.80;;
23745;SDS011;12053;48.878;9.632;2023-08-06T03:44:50;4.55;;;3.58;;
23745;SDS011;12053;48.878;9.632;2023-08-06T03:47:17;6.05;;;3.65;;
23745;SDS011;12053;48.878;9.632;2023-08-06T03:49:44;5.70;;;3.25;;
23745;SDS011;12053;48.878;9.632;2023-08-06T03:52:11;5.22;;;3.28;;
23745;SDS011;12053;48.878;9.632;2023-08-06T03:54:38;5.85;;;3.40;;
23745;SDS011;12053;48.878;9.632;2023-08-06T03:57:05;5.10;;;3.40;;
23745;SDS011;12053;48.878;9.632;2023-08-06T03:59:33;5.25;;;2.88;;
23745;SDS011;12053;48.878;9.632;2023-08-06T04:02:00;6.10;;;2.63;;
23745;SDS011;12053;48.878;9.632;2023-08-06T04:04:27;6.07;;;2.78;;
23745;SDS011;12053;48.878;9.632;2023-08-06T04:06:54;4.57;;;3.28;;
23745;SDS011;12053;48.878;9.632;2023-08-06T04:09:21;4.05;;;2.55;;
23745;SDS011;12053;48.878;9.632;2023-08-06T04:11:48;3.72;;;2.50;;
23745;SDS011;12053;48.878;9.632;2023-08-06T04:14:16;2.90;;;2.50;;
23745;SDS011;12053;48.878;9.632;2023-08-06T04:16:43;2.75;;;2.30;;
23745;SDS011;12053;48.878;9.632;2023-08-06T04:19:10;5.22;;;2.55;;
23745;SDS011;12053;48.878;9.632;2023-08-06T04:21:38;4.07;;;3.03;;
23745;SDS011;12053;48.878;9.632;2023-08-06T04:24:05;5.15;;;2.88;;
23745;SDS011;12053;48.878;9.632;2023-08-06T04:26:32;4.63;;;2.65;;
23745;SDS011;12053;48.878;9.632;2023-08-06T04:28:59;6.25;;;2.75;;
23745;SDS011;12053;48.878;9.632;2023-08-06T04:31:28;3.70;;;2.55;;
23745;SDS011;12053;48.878;9.632;2023-08-06T04:33:55;6.00;;;2.58;;
23745;SDS011;12053;48.878;9.632;2023-08-06T04:36:22;5.05;;;2.60;;
23745;SDS011;12053;48.878;9.632;2023-08-06T04:38:50;3.15;;;2.60;;
23745;SDS011;12053;48.878;9.632;2023-08-06T04:41:17;3.40;;;2.60;;
23745;SDS011;12053;48.878;9.632;2023-08-06T04:43:44;4.80;;;2.78;;
23745;SDS011;12053;48.878;9.632;2023-08-06T04:46:11;4.07;;;2.55;;
23745;SDS011;12053;48.878;9.632;2023-08-06T04:48:38;4.85;;;2.90;;
23745;SDS011;12053;48.878;9.632;2023-08-06T04:51:06;3.78;;;2.95;;
23745;SDS011;12053;48.878;9.632;2023-08-06T04:53:33;6.68;;;3.05;;
23745;SDS011;12053;48.878;9.632;2023-08-06T04:56:00;5.50;;;2.97;;
23745;SDS011;12053;48.878;9.632;2023-08-06T04:58:27;5.90;;;2.90;;
23745;SDS011;12053;48.878;9.632;2023-08-06T05:00:54;5.50;;;2.75;;
23745;SDS011;12053;48.878;9.632;2023-08-06T05:03:22;4.97;;;2.85;;
23745;SDS011;12053;48.878;9.632;2023-08-06T05:05:49;4.38;;;2.83;;
23745;SDS011;12053;48.878;9.632;2023-08-06T05:08:16;4.85;;;2.95;;
23745;SDS011;12053;48.878;9.632;2023-08-06T05:10:44;2.97;;;2.67;;
23745;SDS011;12053;48.878;9.632;2023-08-06T05:13:11;5.07;;;2.97;;
23745;SDS011;12053;48.878;9.632;2023-08-06T05:15:38;7.95;;;3.25;;
23745;SDS011;12053;48.878;9.632;2023-08-06T05:18:08;8.90;;;3.60;;
23745;SDS011;12053;48.878;9.632;2023-08-06T05:20:36;6.22;;;3.00;;
23745;SDS011;12053;48.878;9.632;2023-08-06T05:23:04;3.13;;;2.83;;
23745;SDS011;12053;48.878;9.632;2023-08-06T05:25:31;7.05;;;3.15;;
23745;SDS011;12053;48.878;9.632;2023-08-06T05:27:58;4.20;;;3.22;;
23745;SDS011;12053;48.878;9.632;2023-08-06T05:30:26;4.32;;;3.00;;
23745;SDS011;12053;48.878;9.632;2023-08-06T05:32:53;3.38;;;3.08;;
23745;SDS011;12053;48.878;9.632;2023-08-06T05:35:21;5.07;;;2.67;;
23745;SDS011;12053;48.878;9.632;2023-08-06T05:37:52;5.38;;;2.58;;
23745;SDS011;12053;48.878;9.632;2023-08-06T05:40:20;7.20;;;3.13;;
23745;SDS011;12053;48.878;9.632;2023-08-06T05:42:47;3.17;;;2.60;;
23745;SDS011;12053;48.878;9.632;2023-08-06T05:45:14;4.38;;;2.80;;
23745;SDS011;12053;48.878;9.632;2023-08-06T05:47:41;7.03;;;3.92;;
23745;SDS011;12053;48.878;9.632;2023-08-06T05:50:08;4.35;;;2.58;;
23745;SDS011;12053;48.878;9.632;2023-08-06T05:52:35;4.25;;;2.83;;
23745;SDS011;12053;48.878;9.632;2023-08-06T05:55:03;3.60;;;2.88;;
23745;SDS011;12053;48.878;9.632;2023-08-06T05:57:30;6.00;;;3.00;;
23745;SDS011;12053;48.878;9.632;2023-08-06T05:59:57;4.30;;;2.83;;
23745;SDS011;12053;48.878;9.632;2023-08-06T06:02:24;3.10;;;2.42;;
23745;SDS011;12053;48.878;9.632;2023-08-06T06:04:51;2.45;;;2.10;;
23745;SDS011;12053;48.878;9.632;2023-08-06T06:07:19;3.03;;;2.08;;
23745;SDS011;12053;48.878;9.632;2023-08-06T06:09:46;2.72;;;2.10;;
23745;SDS011;12053;48.878;9.632;2023-08-06T06:12:13;5.13;;;2.70;;
23745;SDS011;12053;48.878;9.632;2023-08-06T06:14:40;4.55;;;1.90;;
23745;SDS011;12053;48.878;9.632;2023-08-06T06:17:07;3.17;;;1.60;;
23745;SDS011;12053;48.878;9.632;2023-08-06T06:19:34;3.38;;;1.92;;
23745;SDS011;12053;48.878;9.632;2023-08-06T06:22:01;1.92;;;1.70;;
23745;SDS011;12053;48.878;9.632;2023-08-06T06:24:28;3.80;;;1.95;;
23745;SDS011;12053;48.878;9.632;2023-08-06T06:26:56;3.53;;;2.00;;
23745;SDS011;12053;48.878;9.632;2023-08-06T06:29:23;2.42;;;1.88;;
23745;SDS011;12053;48.878;9.632;2023-08-06T06:31:50;4.50;;;1.73;;
23745;SDS011;12053;48.878;9.632;2023-08-06T06:34:18;6.40;;;2.17;;
23745;SDS011;12053;48.878;9.632;2023-08-06T06:36:45;4.05;;;1.88;;
23745;SDS011;12053;48.878;9.632;2023-08-06T06:39:12;3.50;;;2.08;;
23745;SDS011;12053;48.878;9.632;2023-08-06T06:41:40;5.13;;;2.20;;
23745;SDS011;12053;48.878;9.632;2023-08-06T06:44:07;2.85;;;2.03;;
23745;SDS011;12053;48.878;9.632;2023-08-06T06:46:34;4.47;;;1.77;;
23745;SDS011;12053;48.878;9.632;2023-08-06T06:49:01;4.43;;;1.90;;
23745;SDS011;12053;48.878;9.632;2023-08-06T06:51:28;5.93;;;1.85;;
23745;SDS011;12053;48.878;9.632;2023-08-06T06:53:57;3.08;;;1.83;;
23745;SDS011;12053;48.878;9.632;2023-08-06T06:56:25;2.08;;;1.70;;
23745;SDS011;12053;48.878;9.632;2023-08-06T06:58:52;2.38;;;1.40;;
23745;SDS011;12053;48.878;9.632;2023-08-06T07:01:19;1.35;;;1.20;;
23745;SDS011;12053;48.878;9.632;2023-08-06T07:03:46;2.58;;;1.15;;
23745;SDS011;12053;48.878;9.632;2023-08-06T07:06:14;2.05;;;0.90;;
23745;SDS011;12053;48.878;9.632;2023-08-06T07:08:42;1.65;;;1.00;;
23745;SDS011;12053;48.878;9.632;2023-08-06T07:11:09;4.30;;;1.35;;
23745;SDS011;12053;48.878;9.632;2023-08-06T07:13:36;5.13;;;1.50;;
23745;SDS011;12053;48.878;9.632;2023-08-06T07:16:03;1.35;;;1.25;;
23745;SDS011;12053;48.878;9.632;2023-08-06T07:18:30;1.20;;;1.10;;
23745;SDS011;12053;48.878;9.632;2023-08-06T07:20:58;1.70;;;1.17;;
23745;SDS011;12053;48.878;9.632;2023-08-06T07:23:25;2.97;;;1.55;;
23745;SDS011;12053;48.878;9.632;2023-08-06T07:25:52;2.70;;;1.10;;
23745;SDS011;12053;48.878;9.632;2023-08-06T07:28:20;3.83;;;1.50;;
23745;SDS011;12053;48.878;9.632;2023-08-06T07:30:47;3.00;;;1.30;;
23745;SDS011;12053;48.878;9.632;2023-08-06T07:33:14;3.05;;;1.10;;
23745;SDS011;12053;48.878;9.632;2023-08-06T07:35:41;5.03;;;1.83;;
23745;SDS011;12053;48.878;9.632;2023-08-06T07:38:09;1.42;;;1.17;;
23745;SDS011;12053;48.878;9.632;2023-08-06T07:40:36;1.73;;;0.98;;
23745;SDS011;12053;48.878;9.632;2023-08-06T07:43:04;1.95;;;1.08;;
23745;SDS011;12053;48.878;9.632;2023-08-06T07:45:34;1.50;;;1.17;;
23745;SDS011;12053;48.878;9.632;2023-08-06T07:48:02;2.40;;;1.05;;
23745;SDS011;12053;48.878;9.632;2023-08-06T07:50:29;2.67;;;1.10;;
23745;SDS011;12053;48.878;9.632;2023-08-06T07:52:56;1.60;;;0.85;;
23745;SDS011;12053;48.878;9.632;2023-08-06T07:55:23;1.17;;;1.08;;
23745;SDS011;12053;48.878;9.632;2023-08-06T07:57:50;2.30;;;1.33;;
23745;SDS011;12053;48.878;9.632;2023-08-06T08:00:18;2.60;;;0.93;;
23745;SDS011;12053;48.878;9.632;2023-08-06T08:02:45;5.95;;;0.98;;
23745;SDS011;12053;48.878;9.632;2023-08-06T08:05:13;2.40;;;1.30;;
23745;SDS011;12053;48.878;9.632;2023-08-06T08:07:40;1.38;;;1.10;;
23745;SDS011;12053;48.878;9.632;2023-08-06T08:10:07;1.88;;;1.13;;
23745;SDS011;12053;48.878;9.632;2023-08-06T08:12:34;2.13;;;1.10;;
23745;SDS011;12053;48.878;9.632;2023-08-06T08:15:02;2.50;;;1.70;;
23745;SDS011;12053;48.878;9.632;2023-08-06T08:17:29;2.47;;;1.02;;
23745;SDS011;12053;48.878;9.632;2023-08-06T08:19:56;15.07;;;8.75;;
23745;SDS011;12053;48.878;9.632;2023-08-06T08:22:24;25.98;;;15.23;;
23745;SDS011;12053;48.878;9.632;2023-08-06T08:24:51;12.95;;;8.68;;
23745;SDS011;12053;48.878;9.632;2023-08-06T08:27:18;11.55;;;8.23;;
23745;SDS011;12053;48.878;9.632;2023-08-06T08:29:45;12.95;;;9.45;;
23745;SDS011;12053;48.878;9.632;2023-08-06T08:32:12;4.28;;;2.47;;
23745;SDS011;12053;48.878;9.632;2023-08-06T08:34:40;1.20;;;1.05;;
23745;SDS011;12053;48.878;9.632;2023-08-06T08:37:07;1.75;;;1.48;;
23745;SDS011;12053;48.878;9.632;2023-08-06T08:39:34;1.10;;;1.10;;
23745;SDS011;12053;48.878;9.632;2023-08-06T08:42:01;1.55;;;0.90;;
23745;SDS011;12053;48.878;9.632;2023-08-06T08:44:30;1.92;;;0.88;;
23745;SDS011;12053;48.878;9.632;2023-08-06T08:46:58;1.38;;;0.80;;
23745;SDS011;12053;48.878;9.632;2023-08-06T08:49:26;0.65;;;0.60;;
23745;SDS011;12053;48.878;9.632;2023-08-06T08:51:54;3.55;;;0.73;;
23745;SDS011;12053;48.878;9.632;2023-08-06T08:54:22;0.60;;;0.60;;
23745;SDS011;12053;48.878;9.632;2023-08-06T08:56:50;0.60;;;0.60;;
23745;SDS011;12053;48.878;9.632;2023-08-06T08:59:17;0.75;;;0.65;;
23745;SDS011;12053;48.878;9.632;2023-08-06T09:01:45;1.80;;;0.77;;
23745;SDS011;12053;48.878;9.632;2023-08-06T09:04:12;1.48;;;0.60;;
23745;SDS011;12053;48.878;9.632;2023-08-06T09:06:40;0.77;;;0.60;;
23745;SDS011;12053;48.878;9.632;2023-08-06T09:09:12;0.82;;;0.50;;
23745;SDS011;12053;48.878;9.632;2023-08-06T09:11:39;0.25;;;0.25;;
23745;SDS011;12053;48.878;9.632;2023-08-06T09:14:09;0.88;;;0.57;;
23745;SDS011;12053;48.878;9.632;2023-08-06T09:16:37;0.30;;;0.30;;
23745;SDS011;12053;48.878;9.632;2023-08-06T09:19:08;0.52;;;0.40;;
23745;SDS011;12053;48.878;9.632;2023-08-06T09:21:36;0.75;;;0.70;;
23745;SDS011;12053;48.878;9.632;2023-08-06T09:24:13;1.95;;;0.77;;
23745;SDS011;12053;48.878;9.632;2023-08-06T09:26:41;1.73;;;1.20;;
23745;SDS011;12053;48.878;9.632;2023-08-06T09:29:09;1.55;;;0.70;;
23745;SDS011;12053;48.878;9.632;2023-08-06T09:31:41;4.13;;;1.60;;
23745;SDS011;12053;48.878;9.632;2023-08-06T09:34:15;1.15;;;0.90;;
23745;SDS011;12053;48.878;9.632;2023-08-06T09:36:43;1.05;;;0.50;;
23745;SDS011;12053;48.878;9.632;2023-08-06T09:39:14;0.50;;;0.50;;
23745;SDS011;12053;48.878;9.632;2023-08-06T09:41:42;1.45;;;0.90;;
23745;SDS011;12053;48.878;9.632;2023-08-06T09:44:19;0.77;;;0.63;;
23745;SDS011;12053;48.878;9.632;2023-08-06T09:46:52;1.02;;;0.90;;
23745;SDS011;12053;48.878;9.632;2023-08-06T09:49:19;4.38;;;2.90;;
23745;SDS011;12053;48.878;9.632;2023-08-06T09:51:49;1.50;;;1.10;;
23745;SDS011;12053;48.878;9.632;2023-08-06T09:54:18;0.45;;;0.45;;
23745;SDS011;12053;48.878;9.632;2023-08-06T09:56:53;1.27;;;0.55;;
23745;SDS011;12053;48.878;9.632;2023-08-06T09:59:20;0.82;;;0.50;;
23745;SDS011;12053;48.878;9.632;2023-08-06T10:01:48;0.40;;;0.40;;
23745;SDS011;12053;48.878;9.632;2023-08-06T10:04:19;0.60;;;0.60;;
23745;SDS011;12053;48.878;9.632;2023-08-06T10:09:18;2.25;;;0.50;;
23745;SDS011;12053;48.878;9.632;2023-08-06T10:11:50;0.50;;;0.50;;
23745;SDS011;12053;48.878;9.632;2023-08-06T10:14:21;0.57;;;0.40;;
23745;SDS011;12053;48.878;9.632;2023-08-06T10:16:50;0.50;;;0.50;;
23745;SDS011;12053;48.878;9.632;2023-08-06T10:19:17;0.50;;;0.50;;
23745;SDS011;12053;48.878;9.632;2023-08-06T10:24:45;0.32;;;0.32;;
23745;SDS011;12053;48.878;9.632;2023-08-06T10:27:12;0.32;;;0.30;;
23745;SDS011;12053;48.878;9.632;2023-08-06T10:29:39;0.20;;;0.20;;
23745;SDS011;12053;48.878;9.632;2023-08-06T10:32:07;0.30;;;0.30;;
23745;SDS011;12053;48.878;9.632;2023-08-06T10:34:53;0.80;;;0.43;;
23745;SDS011;12053;48.878;9.632;2023-08-06T10:37:21;0.43;;;0.40;;
23745;SDS011;12053;48.878;9.632;2023-08-06T10:39:50;3.10;;;0.40;;
23745;SDS011;12053;48.878;9.632;2023-08-06T10:42:21;0.40;;;0.40;;
23745;SDS011;12053;48.878;9.632;2023-08-06T10:45:10;0.95;;;0.40;;
23745;SDS011;12053;48.878;9.632;2023-08-06T10:47:38;0.57;;;0.28;;
23745;SDS011;12053;48.878;9.632;2023-08-06T10:50:13;0.30;;;0.30;;
23745;SDS011;12053;48.878;9.632;2023-08-06T10:52:46;0.30;;;0.30;;
23745;SDS011;12053;48.878;9.632;2023-08-06T10:55:14;1.50;;;0.95;;
23745;SDS011;12053;48.878;9.632;2023-08-06T10:57:41;1.98;;;0.40;;
23745;SDS011;12053;48.878;9.632;2023-08-06T11:00:08;0.30;;;0.30;;
23745;SDS011;12053;48.878;9.632;2023-08-06T11:02:42;0.60;;;0.60;;
23745;SDS011;12053;48.878;9.632;2023-08-06T11:05:10;1.67;;;0.50;;
23745;SDS011;12053;48.878;9.632;2023-08-06T11:07:38;0.73;;;0.30;;
23745;SDS011;12053;48.878;9.632;2023-08-06T11:10:06;0.30;;;0.30;;
23745;SDS011;12053;48.878;9.632;2023-08-06T11:12:34;0.47;;;0.40;;
23745;SDS011;12053;48.878;9.632;2023-08-06T11:15:02;0.73;;;0.25;;
23745;SDS011;12053;48.878;9.632;2023-08-06T11:17:30;0.40;;;0.40;;
23745;SDS011;12053;48.878;9.632;2023-08-06T11:19:58;2.15;;;1.10;;
23745;SDS011;12053;48.878;9.632;2023-08-06T11:22:26;0.40;;;0.40;;
23745;SDS011;12053;48.878;9.632;2023-08-06T11:24:53;0.30;;;0.30;;
23745;SDS011;12053;48.878;9.632;2023-08-06T11:27:21;0.45;;;0.38;;
23745;SDS011;12053;48.878;9.632;2023-08-06T11:29:48;0.50;;;0.50;;
23745;SDS011;12053;48.878;9.632;2023-08-06T11:32:15;0.63;;;0.63;;
23745;SDS011;12053;48.878;9.632;2023-08-06T11:34:43;0.60;;;0.60;;
23745;SDS011;12053;48.878;9.632;2023-08-06T11:37:11;0.47;;;0.47;;
23745;SDS011;12053;48.878;9.632;2023-08-06T11:39:38;0.40;;;0.40;;
23745;SDS011;12053;48.878;9.632;2023-08-06T11:42:06;0.88;;;0.60;;
23745;SDS011;12053;48.878;9.632;2023-08-06T11:44:36;0.75;;;0.55;;
23745;SDS011;12053;48.878;9.632;2023-08-06T11:47:04;0.60;;;0.60;;
23745;SDS011;12053;48.878;9.632;2023-08-06T11:49:48;4.38;;;0.70;;
23745;SDS011;12053;48.878;9.632;2023-08-06T11:52:24;1.00;;;0.88;;
23745;SDS011;12053;48.878;9.632;2023-08-06T11:55:05;1.08;;;0.98;;
23745;SDS011;12053;48.878;9.632;2023-08-06T11:57:34;1.20;;;0.60;;
23745;SDS011;12053;48.878;9.632;2023-08-06T12:00:05;0.77;;;0.77;;
23745;SDS011;12053;48.878;9.632;2023-08-06T12:02:33;1.17;;;0.90;;
23745;SDS011;12053;48.878;9.632;2023-08-06T12:05:02;1.00;;;0.90;;
23745;SDS011;12053;48.878;9.632;2023-08-06T12:07:36;0.95;;;0.95;;
23745;SDS011;12053;48.878;9.632;2023-08-06T12:10:04;0.90;;;0.90;;
23745;SDS011;12053;48.878;9.632;2023-08-06T12:12:31;0.70;;;0.70;;
23745;SDS011;12053;48.878;9.632;2023-08-06T12:14:59;1.10;;;1.00;;
23745;SDS011;12053;48.878;9.632;2023-08-06T12:17:26;2.88;;;1.35;;
23745;SDS011;12053;48.878;9.632;2023-08-06T12:19:53;2.25;;;1.17;;
23745;SDS011;12053;48.878;9.632;2023-08-06T12:22:20;1.60;;;1.48;;
23745;SDS011;12053;48.878;9.632;2023-08-06T12:24:50;1.58;;;1.42;;
23745;SDS011;12053;48.878;9.632;2023-08-06T12:27:17;1.83;;;1.45;;
23745;SDS011;12053;48.878;9.632;2023-08-06T12:29:45;1.63;;;1.42;;
23745;SDS011;12053;48.878;9.632;2023-08-06T12:32:12;1.88;;;1.60;;
23745;SDS011;12053;48.878;9.632;2023-08-06T12:34:40;2.20;;;1.50;;
23745;SDS011;12053;48.878;9.632;2023-08-06T12:37:18;4.28;;;1.92;;
23745;SDS011;12053;48.878;9.632;2023-08-06T12:39:46;2.00;;;1.50;;
23745;SDS011;12053;48.878;9.632;2023-08-06T12:42:13;3.28;;;1.80;;
23745;SDS011;12053;48.878;9.632;2023-08-06T12:44:40;2.38;;;1.63;;
23745;SDS011;12053;48.878;9.632;2023-08-06T12:47:07;4.65;;;2.47;;
23745;SDS011;12053;48.878;9.632;2023-08-06T12:49:35;2.40;;;1.75;;
23745;SDS011;12053;48.878;9.632;2023-08-06T12:52:02;3.45;;;2.38;;
23745;SDS011;12053;48.878;9.632;2023-08-06T12:54:32;3.53;;;2.25;;
23745;SDS011;12053;48.878;9.632;2023-08-06T12:57:03;2.63;;;1.80;;
23745;SDS011;12053;48.878;9.632;2023-08-06T12:59:30;5.72;;;2.50;;
23745;SDS011;12053;48.878;9.632;2023-08-06T13:01:59;4.40;;;2.78;;
23745;SDS011;12053;48.878;9.632;2023-08-06T13:04:27;5.18;;;2.25;;
23745;SDS011;12053;48.878;9.632;2023-08-06T13:06:54;6.18;;;3.50;;
23745;SDS011;12053;48.878;9.632;2023-08-06T13:09:21;5.75;;;3.13;;
23745;SDS011;12053;48.878;9.632;2023-08-06T13:11:48;6.32;;;2.58;;
23745;SDS011;12053;48.878;9.632;2023-08-06T13:14:16;3.92;;;2.75;;
23745;SDS011;12053;48.878;9.632;2023-08-06T13:16:43;4.43;;;3.00;;
23745;SDS011;12053;48.878;9.632;2023-08-06T13:19:11;4.47;;;2.55;;
23745;SDS011;12053;48.878;9.632;2023-08-06T13:24:08;8.00;;;2.70;;
23745;SDS011;12053;48.878;9.632;2023-08-06T13:26:36;4.38;;;2.90;;
23745;SDS011;12053;48.878;9.632;2023-08-06T13:29:03;3.10;;;2.35;;
23745;SDS011;12053;48.878;9.632;2023-08-06T13:31:30;4.40;;;2.75;;
23745;SDS011;12053;48.878;9.632;2023-08-06T13:33:57;3.72;;;2.15;;
23745;SDS011;12053;48.878;9.632;2023-08-06T13:36:25;3.35;;;2.60;;
23745;SDS011;12053;48.878;9.632;2023-08-06T13:38:53;4.13;;;2.17;;
23745;SDS011;12053;48.878;9.632;2023-08-06T13:41:20;4.47;;;2.13;;
23745;SDS011;12053;48.878;9.632;2023-08-06T13:43:48;2.67;;;1.90;;
23745;SDS011;12053;48.878;9.632;2023-08-06T13:46:15;3.45;;;2.05;;
23745;SDS011;12053;48.878;9.632;2023-08-06T13:48:44;4.25;;;2.03;;
23745;SDS011;12053;48.878;9.632;2023-08-06T13:51:12;2.38;;;1.98;;
23745;SDS011;12053;48.878;9.632;2023-08-06T13:53:40;2.25;;;2.05;;
23745;SDS011;12053;48.878;9.632;2023-08-06T13:56:08;1.95;;;1.75;;
23745;SDS011;12053;48.878;9.632;2023-08-06T13:58:41;2.63;;;2.15;;
23745;SDS011;12053;48.878;9.632;2023-08-06T14:01:09;6.38;;;2.22;;
23745;SDS011;12053;48.878;9.632;2023-08-06T14:03:36;8.65;;;1.80;;
23745;SDS011;12053;48.878;9.632;2023-08-06T14:06:04;3.05;;;1.75;;
23745;SDS011;12053;48.878;9.632;2023-08-06T14:08:31;2.08;;;1.67;;
23745;SDS011;12053;48.878;9.632;2023-08-06T14:10:58;2.17;;;1.67;;
23745;SDS011;12053;48.878;9.632;2023-08-06T14:13:25;2.63;;;1.45;;
23745;SDS011;12053;48.878;9.632;2023-08-06T14:15:52;1.73;;;1.20;;
23745;SDS011;12053;48.878;9.632;2023-08-06T14:18:20;2.35;;;1.20;;
23745;SDS011;12053;48.878;9.632;2023-08-06T14:20:47;2.22;;;1.23;;
23745;SDS011;12053;48.878;9.632;2023-08-06T14:23:14;2.50;;;1.05;;
23745;SDS011;12053;48.878;9.632;2023-08-06T14:25:41;1.17;;;1.08;;
23745;SDS011;12053;48.878;9.632;2023-08-06T14:28:09;2.83;;;0.80;;
23745;SDS011;12053;48.878;9.632;2023-08-06T14:30:36;2.25;;;0.80;;
23745;SDS011;12053;48.878;9.632;2023-08-06T14:33:03;1.45;;;1.00;;
23745;SDS011;12053;48.878;9.632;2023-08-06T14:35:50;1.30;;;1.20;;
23745;SDS011;12053;48.878;9.632;2023-08-06T14:38:22;1.25;;;1.10;;
23745;SDS011;12053;48.878;9.632;2023-08-06T14:40:49;3.17;;;1.17;;
23745;SDS011;12053;48.878;9.632;2023-08-06T14:43:16;3.20;;;1.08;;
23745;SDS011;12053;48.878;9.632;2023-08-06T14:45:44;2.25;;;1.13;;
23745;SDS011;12053;48.878;9.632;2023-08-06T14:48:11;1.13;;;0.90;;
23745;SDS011;12053;48.878;9.632;2023-08-06T14:50:39;1.42;;;0.90;;
23745;SDS011;12053;48.878;9.632;2023-08-06T14:53:07;0.98;;;0.88;;
23745;SDS011;12053;48.878;9.632;2023-08-06T14:55:36;3.78;;;1.40;;
23745;SDS011;12053;48.878;9.632;2023-08-06T14:58:03;0.98;;;0.80;;
23745;SDS011;12053;48.878;9.632;2023-08-06T15:00:31;1.10;;;1.00;;
23745;SDS011;12053;48.878;9.632;2023-08-06T15:02:58;1.30;;;1.20;;
23745;SDS011;12053;48.878;9.632;2023-08-06T15:05:25;2.47;;;1.30;;
23745;SDS011;12053;48.878;9.632;2023-08-06T15:07:52;2.75;;;1.63;;